Time;durP1;ratioP1;P1;durP2;ratioP2;P2;SDS_P1;SDS_P2;PMS_P1;PMS_P2;Temp;Humidity;BMP_temperature;BMP_pressure;BME280_temperature;BME280_humidity;BME280_pressure;Samples;Min_cycle;Max_cycle;Signal;HPM_P1;HPM_P2
2021/11/07 00:00:24;;;;;;;9.90;6.03;;;9.70;85.40;;;;;;5010354;28;20069;-68
2021/11/07 00:03:16;;;;;;;7.57;5.05;;;9.60;85.20;;;;;;5003895;28;20533;-68
2021/11/07 00:11:09;;;;;;;6.80;4.63;;;9.60;86.10;;;;;;4973527;28;20057;-67
2021/11/07 00:13:35;;;;;;;9.02;5.60;;;9.60;85.80;;;;;;5000591;28;20083;-68
2021/11/07 00:16:08;;;;;;;8.75;5.13;;;9.60;85.80;;;;;;5009326;28;20025;-68
2021/11/07 00:18:41;;;;;;;7.57;4.95;;;9.40;86.40;;;;;;5013377;28;20033;-70
2021/11/07 00:21:15;;;;;;;8.20;4.53;;;9.50;86.50;;;;;;5016432;28;20041;-69
2021/11/07 00:23:54;;;;;;;10.05;5.13;;;9.50;85.70;;;;;;5016097;28;20179;-67
2021/11/07 00:26:47;;;;;;;7.88;4.80;;;9.40;86.20;;;;;;5013398;28;20037;-72
2021/11/07 00:29:13;;;;;;;8.18;4.60;;;9.40;86.40;;;;;;5003963;28;20103;-70
2021/11/07 00:31:49;;;;;;;7.82;4.88;;;9.40;85.90;;;;;;5004251;28;20156;-70
2021/11/07 00:35:20;;;;;;;8.00;5.13;;;9.40;86.10;;;;;;5008739;28;20025;-68
2021/11/07 00:37:08;;;;;;;9.00;5.40;;;9.40;85.80;;;;;;5011965;28;20111;-69
2021/11/07 00:44:37;;;;;;;8.63;4.90;;;9.50;85.60;;;;;;5008262;28;20025;-70
2021/11/07 00:47:15;;;;;;;7.15;5.03;;;9.40;85.60;;;;;;5006278;28;20033;-69
2021/11/07 00:49:49;;;;;;;7.43;4.55;;;9.30;86.60;;;;;;5002170;28;20034;-69
2021/11/07 00:52:20;;;;;;;9.25;4.90;;;9.20;87.30;;;;;;5007167;28;20041;-70
2021/11/07 01:00:18;;;;;;;7.28;4.93;;;9.10;87.70;;;;;;5013441;28;20054;-70
2021/11/07 01:02:46;;;;;;;7.82;4.72;;;8.90;88.50;;;;;;5011537;28;20048;-70
2021/11/07 01:05:18;;;;;;;9.57;4.90;;;8.90;88.40;;;;;;5016816;28;20025;-69
2021/11/07 01:07:44;;;;;;;7.75;4.90;;;8.90;88.60;;;;;;5018297;28;20041;-69
2021/11/07 01:10:10;;;;;;;7.93;5.10;;;8.90;88.10;;;;;;5014239;28;20045;-70
2021/11/07 01:12:36;;;;;;;7.35;5.32;;;8.90;89.30;;;;;;5007572;28;20112;-69
2021/11/07 01:15:04;;;;;;;14.02;5.53;;;8.90;88.90;;;;;;5000883;28;20120;-70
2021/11/07 01:17:30;;;;;;;7.50;4.60;;;9.00;88.30;;;;;;5003542;28;20026;-70
2021/11/07 01:19:57;;;;;;;8.43;5.03;;;9.00;88.40;;;;;;5008581;28;20282;-70
2021/11/07 01:22:32;;;;;;;7.22;4.53;;;9.00;88.60;;;;;;5014449;28;20069;-70
2021/11/07 01:25:00;;;;;;;12.10;5.00;;;9.10;88.20;;;;;;5015582;28;20037;-70
2021/11/07 01:27:32;;;;;;;8.20;4.85;;;9.10;87.60;;;;;;5014323;28;20280;-70
2021/11/07 01:30:01;;;;;;;7.63;4.53;;;9.00;88.60;;;;;;5010318;28;20030;-69
2021/11/07 01:32:27;;;;;;;7.05;4.68;;;9.00;88.50;;;;;;5014846;28;20041;-69
2021/11/07 01:35:07;;;;;;;9.32;4.57;;;9.00;88.10;;;;;;5017719;28;20099;-70
2021/11/07 01:37:42;;;;;;;8.95;4.65;;;9.00;88.10;;;;;;5010127;28;20029;-70
2021/11/07 01:40:15;;;;;;;11.30;5.50;;;9.00;88.40;;;;;;5012341;28;20030;-70
2021/11/07 01:42:52;;;;;;;7.30;4.55;;;9.00;88.00;;;;;;5000998;28;20034;-70
2021/11/07 01:45:27;;;;;;;7.65;4.30;;;9.20;87.90;;;;;;5002198;28;20033;-69
2021/11/07 01:48:03;;;;;;;6.90;4.47;;;9.20;87.60;;;;;;5010080;28;20068;-68
2021/11/07 01:50:30;;;;;;;7.70;4.63;;;9.40;87.80;;;;;;5006074;28;20030;-69
2021/11/07 01:53:05;;;;;;;9.57;5.20;;;9.40;87.00;;;;;;5017790;28;20116;-70
2021/11/07 01:55:31;;;;;;;8.80;5.05;;;9.30;86.80;;;;;;5005305;28;20123;-69
2021/11/07 01:57:57;;;;;;;7.47;4.80;;;9.20;87.30;;;;;;5010520;28;20033;-69
2021/11/07 02:00:28;;;;;;;10.50;5.32;;;9.30;87.20;;;;;;5011570;28;20123;-68
2021/11/07 02:02:54;;;;;;;8.60;4.85;;;9.30;87.20;;;;;;4999644;28;20045;-68
2021/11/07 02:05:20;;;;;;;9.75;5.25;;;9.30;87.40;;;;;;5006791;28;20152;-68
2021/11/07 02:07:46;;;;;;;8.93;4.95;;;9.30;87.60;;;;;;5011223;28;20040;-68
2021/11/07 02:10:14;;;;;;;9.38;4.97;;;9.20;87.90;;;;;;5015638;28;20059;-68
2021/11/07 02:12:41;;;;;;;8.23;4.85;;;9.20;88.20;;;;;;5014085;28;20041;-67
2021/11/07 02:15:09;;;;;;;6.53;4.18;;;9.20;88.00;;;;;;5006961;28;20048;-68
2021/11/07 02:17:35;;;;;;;9.93;4.68;;;9.20;88.20;;;;;;5012695;28;20052;-68
2021/11/07 02:20:03;;;;;;;8.40;5.22;;;9.20;88.10;;;;;;5017327;28;20041;-68
2021/11/07 02:22:30;;;;;;;9.73;4.97;;;9.20;88.10;;;;;;5012755;28;20129;-68
2021/11/07 02:24:56;;;;;;;6.85;4.38;;;9.20;88.80;;;;;;5007194;28;20038;-68
2021/11/07 02:27:23;;;;;;;8.02;4.85;;;9.20;88.40;;;;;;5002151;28;20521;-68
2021/11/07 02:29:50;;;;;;;7.85;4.93;;;9.10;89.00;;;;;;4999848;28;20046;-66
2021/11/07 02:32:17;;;;;;;8.32;4.90;;;9.10;89.10;;;;;;5010715;28;20053;-68
2021/11/07 02:34:43;;;;;;;8.18;4.13;;;9.00;89.40;;;;;;5008723;28;20038;-67
2021/11/07 02:37:10;;;;;;;6.82;4.03;;;9.10;89.40;;;;;;5014807;28;20131;-68
2021/11/07 02:39:36;;;;;;;8.52;4.32;;;9.20;88.90;;;;;;5015260;28;20055;-70
2021/11/07 02:42:03;;;;;;;8.50;4.38;;;9.20;88.80;;;;;;5010847;28;20549;-67
2021/11/07 02:44:34;;;;;;;8.27;4.70;;;9.40;87.90;;;;;;5012044;28;20037;-68
2021/11/07 02:47:09;;;;;;;9.25;4.28;;;9.40;87.80;;;;;;5001345;28;20072;-68
2021/11/07 02:49:36;;;;;;;7.30;4.07;;;9.60;87.40;;;;;;5015613;28;20060;-68
2021/11/07 02:52:04;;;;;;;6.35;4.05;;;9.70;86.80;;;;;;5008105;28;20038;-69
2021/11/07 02:54:30;;;;;;;7.80;4.05;;;9.80;86.60;;;;;;5007038;28;20033;-68
2021/11/07 02:56:58;;;;;;;7.97;4.40;;;9.80;86.10;;;;;;5015657;28;20032;-68
2021/11/07 02:59:26;;;;;;;6.88;3.67;;;9.80;85.90;;;;;;5011622;28;20128;-68
2021/11/07 03:01:55;;;;;;;5.95;4.13;;;9.90;85.50;;;;;;5006092;28;20041;-68
2021/11/07 03:04:21;;;;;;;10.32;4.68;;;9.80;85.40;;;;;;5012694;28;20065;-67
2021/11/07 03:06:47;;;;;;;6.57;3.90;;;9.80;85.80;;;;;;5014476;28;20069;-68
2021/11/07 03:09:19;;;;;;;10.32;5.10;;;9.80;85.60;;;;;;5009730;28;20136;-68
2021/11/07 03:11:46;;;;;;;6.47;3.95;;;9.80;85.80;;;;;;5013651;28;20092;-69
2021/11/07 03:14:16;;;;;;;8.90;4.22;;;9.80;85.80;;;;;;5013260;28;20036;-70
2021/11/07 03:16:43;;;;;;;5.18;3.63;;;9.70;85.70;;;;;;5003461;28;20029;-67
2021/11/07 03:19:10;;;;;;;5.57;3.75;;;9.70;85.90;;;;;;5005495;28;20038;-68
2021/11/07 03:21:37;;;;;;;9.40;4.03;;;9.80;85.90;;;;;;5003003;28;20512;-69
2021/11/07 03:24:04;;;;;;;8.40;4.28;;;9.80;85.70;;;;;;5008526;28;20045;-69
2021/11/07 03:26:32;;;;;;;4.47;3.38;;;9.90;85.30;;;;;;5011404;28;20043;-68
2021/11/07 03:29:01;;;;;;;6.80;3.22;;;9.90;84.90;;;;;;5005582;28;20034;-68
2021/11/07 03:31:40;;;;;;;7.43;3.78;;;9.90;85.70;;;;;;5002510;28;20037;-68
2021/11/07 03:34:30;;;;;;;7.88;3.53;;;9.80;85.40;;;;;;4999027;28;20069;-68
2021/11/07 03:36:56;;;;;;;5.78;3.28;;;9.90;85.50;;;;;;5004871;28;20045;-68
2021/11/07 03:39:24;;;;;;;4.68;3.33;;;9.90;85.80;;;;;;5010758;28;20033;-67
2021/11/07 03:41:50;;;;;;;7.10;3.50;;;9.90;85.90;;;;;;5014691;28;20073;-67
2021/11/07 03:44:19;;;;;;;6.65;3.13;;;9.90;85.70;;;;;;5012332;28;20057;-68
2021/11/07 03:46:47;;;;;;;6.82;3.35;;;9.80;86.20;;;;;;5007423;28;20088;-68
2021/11/07 03:49:13;;;;;;;7.57;4.45;;;9.90;86.00;;;;;;5001667;28;20635;-68
2021/11/07 03:51:40;;;;;;;4.72;3.05;;;9.90;85.50;;;;;;4997750;28;20092;-66
2021/11/07 03:54:07;;;;;;;6.47;3.47;;;10.00;85.40;;;;;;5002218;28;20505;-66
2021/11/07 03:56:33;;;;;;;6.88;3.65;;;10.10;85.50;;;;;;5011764;28;20073;-67
2021/11/07 03:58:59;;;;;;;6.18;3.47;;;10.00;85.80;;;;;;5016492;28;20771;-67
2021/11/07 04:01:26;;;;;;;5.60;3.72;;;9.90;86.50;;;;;;5018126;28;20040;-68
2021/11/07 04:03:51;;;;;;;6.75;3.08;;;9.80;87.60;;;;;;5012910;28;20061;-68
2021/11/07 04:06:18;;;;;;;5.85;3.60;;;9.80;88.10;;;;;;5009581;28;20821;-67
2021/11/07 04:08:44;;;;;;;4.90;3.92;;;9.80;87.60;;;;;;5017585;28;20107;-67
2021/11/07 04:11:10;;;;;;;5.20;3.83;;;9.90;87.70;;;;;;5017065;28;20037;-68
2021/11/07 04:13:39;;;;;;;4.15;2.97;;;9.80;86.80;;;;;;5010074;28;20481;-67
2021/11/07 04:16:09;;;;;;;6.57;3.30;;;9.80;87.30;;;;;;5006425;28;20518;-67
2021/11/07 04:18:37;;;;;;;6.72;3.58;;;9.90;86.80;;;;;;5000559;28;20817;-67
2021/11/07 04:21:04;;;;;;;6.40;3.58;;;9.90;86.20;;;;;;5003738;28;20046;-67
2021/11/07 04:23:30;;;;;;;4.22;2.92;;;9.90;86.30;;;;;;5009890;28;20195;-67
2021/11/07 04:25:56;;;;;;;6.32;3.35;;;9.90;86.70;;;;;;5013500;28;20484;-68
2021/11/07 04:28:22;;;;;;;7.05;3.80;;;9.90;86.60;;;;;;5017828;28;20088;-67
2021/11/07 04:30:48;;;;;;;6.30;3.40;;;9.90;85.80;;;;;;5014045;28;20104;-68
2021/11/07 04:33:15;;;;;;;5.90;3.38;;;9.90;86.70;;;;;;5011789;28;20029;-67
2021/11/07 04:35:41;;;;;;;4.95;3.50;;;9.90;85.80;;;;;;5003471;28;20112;-67
2021/11/07 04:38:07;;;;;;;4.93;3.38;;;9.90;85.90;;;;;;5001821;28;20041;-68
2021/11/07 04:40:33;;;;;;;5.75;3.88;;;9.80;86.40;;;;;;5011789;28;20040;-67
2021/11/07 04:42:59;;;;;;;4.90;3.22;;;9.80;85.90;;;;;;5011360;28;20038;-68
2021/11/07 04:45:24;;;;;;;5.30;3.22;;;9.90;86.00;;;;;;5010235;28;20136;-70
2021/11/07 04:47:50;;;;;;;5.43;3.55;;;9.90;85.50;;;;;;5017174;28;20041;-70
2021/11/07 04:50:18;;;;;;;5.10;3.08;;;9.90;85.70;;;;;;5012634;28;20030;-70
2021/11/07 04:52:44;;;;;;;3.97;2.78;;;10.00;85.10;;;;;;5014264;28;20036;-71
2021/11/07 04:55:11;;;;;;;5.40;3.30;;;10.10;84.50;;;;;;5017345;28;20029;-70
2021/11/07 04:57:42;;;;;;;4.80;3.20;;;10.10;84.70;;;;;;5006491;28;20065;-70
2021/11/07 05:00:17;;;;;;;6.18;3.20;;;10.10;84.80;;;;;;5009255;28;20883;-70
2021/11/07 05:02:45;;;;;;;7.10;2.92;;;10.00;84.70;;;;;;5003707;28;20139;-70
2021/11/07 05:05:11;;;;;;;5.07;3.33;;;9.90;84.90;;;;;;5000243;28;20026;-70
2021/11/07 05:07:36;;;;;;;5.97;3.20;;;9.90;85.50;;;;;;5005112;28;20092;-69
2021/11/07 05:10:03;;;;;;;6.70;3.47;;;10.00;85.50;;;;;;5010414;28;20145;-70
2021/11/07 05:12:29;;;;;;;4.38;3.28;;;10.00;85.00;;;;;;5014895;28;20116;-69
2021/11/07 05:14:55;;;;;;;8.43;3.75;;;9.90;85.60;;;;;;5031539;28;20059;-69
2021/11/07 05:17:21;;;;;;;5.25;3.30;;;10.00;85.20;;;;;;5011970;28;20030;-68
2021/11/07 05:19:47;;;;;;;5.53;3.20;;;10.00;84.50;;;;;;5018827;28;20119;-69
2021/11/07 05:22:12;;;;;;;5.10;3.60;;;10.10;84.90;;;;;;5010338;28;20049;-69
2021/11/07 05:24:38;;;;;;;5.03;3.25;;;10.10;85.00;;;;;;5012693;28;20048;-69
2021/11/07 05:27:04;;;;;;;5.07;3.58;;;10.10;85.10;;;;;;5012208;28;20025;-69
2021/11/07 05:29:30;;;;;;;6.80;3.22;;;10.10;84.80;;;;;;5015484;28;20033;-69
2021/11/07 05:31:57;;;;;;;5.13;3.60;;;10.10;84.40;;;;;;5018806;28;20044;-69
2021/11/07 05:34:23;;;;;;;5.80;3.88;;;10.00;85.40;;;;;;5017173;28;20743;-69
2021/11/07 05:36:51;;;;;;;4.75;3.03;;;9.90;85.70;;;;;;5018993;28;20030;-69
2021/11/07 05:39:17;;;;;;;9.80;3.83;;;10.00;85.30;;;;;;5020183;28;20048;-68
2021/11/07 05:41:43;;;;;;;5.25;3.17;;;10.00;85.90;;;;;;5008940;28;20056;-69
2021/11/07 05:44:09;;;;;;;7.75;4.28;;;10.00;85.30;;;;;;5023304;28;20124;-69
2021/11/07 05:46:35;;;;;;;5.95;3.78;;;10.10;85.70;;;;;;5030619;28;20120;-69
2021/11/07 05:49:01;;;;;;;7.03;3.75;;;10.20;85.10;;;;;;5013884;28;20117;-70
2021/11/07 05:51:28;;;;;;;6.85;3.60;;;10.10;85.10;;;;;;5023925;28;20487;-69
2021/11/07 05:53:53;;;;;;;4.90;3.42;;;10.20;85.40;;;;;;5018695;28;20051;-69
2021/11/07 05:56:19;;;;;;;4.97;3.55;;;10.20;85.10;;;;;;5020777;28;20549;-69
2021/11/07 05:58:45;;;;;;;8.32;3.90;;;10.20;85.30;;;;;;5014515;28;20025;-69
2021/11/07 06:01:12;;;;;;;6.82;3.33;;;10.20;84.90;;;;;;5013727;28;20042;-70
2021/11/07 06:03:38;;;;;;;5.38;3.38;;;10.20;85.20;;;;;;5015222;28;20033;-69
2021/11/07 06:06:04;;;;;;;5.55;3.35;;;10.10;85.30;;;;;;5019981;28;20045;-69
2021/11/07 06:08:30;;;;;;;4.93;3.45;;;10.10;85.60;;;;;;5026144;28;20044;-70
2021/11/07 06:10:57;;;;;;;5.53;4.05;;;10.20;86.20;;;;;;5021052;28;20041;-70
2021/11/07 06:13:24;;;;;;;6.68;4.13;;;10.40;86.80;;;;;;5028538;28;20041;-69
2021/11/07 06:15:50;;;;;;;6.32;4.13;;;10.10;88.00;;;;;;5015553;28;20497;-69
2021/11/07 06:18:16;;;;;;;6.82;3.88;;;9.80;89.30;;;;;;5016051;28;20721;-69
2021/11/07 06:20:41;;;;;;;5.22;3.47;;;9.80;90.20;;;;;;5018961;28;20063;-69
2021/11/07 06:23:09;;;;;;;7.18;3.70;;;9.90;89.80;;;;;;5014894;28;20033;-69
2021/11/07 06:25:36;;;;;;;7.55;3.80;;;9.90;89.40;;;;;;5021107;28;20478;-69
2021/11/07 06:28:03;;;;;;;8.18;4.40;;;10.00;89.50;;;;;;5002953;28;20045;-69
2021/11/07 06:30:29;;;;;;;5.63;4.00;;;10.00;89.20;;;;;;5010681;28;20496;-70
2021/11/07 06:32:55;;;;;;;6.25;4.00;;;10.10;88.90;;;;;;5018462;28;20120;-69
2021/11/07 06:35:21;;;;;;;6.68;3.67;;;9.90;90.00;;;;;;5016323;28;20083;-70
2021/11/07 06:37:46;;;;;;;8.20;3.78;;;9.80;90.10;;;;;;5016479;28;20084;-69
2021/11/07 06:40:13;;;;;;;8.05;3.90;;;9.90;90.10;;;;;;5017989;28;20033;-69
2021/11/07 06:42:39;;;;;;;6.63;3.45;;;9.90;90.10;;;;;;5009717;28;20045;-69
2021/11/07 06:45:05;;;;;;;6.82;4.25;;;10.00;90.00;;;;;;5006478;28;20033;-70
2021/11/07 06:47:31;;;;;;;7.50;4.35;;;9.90;89.70;;;;;;5017192;28;20076;-69
2021/11/07 06:49:58;;;;;;;6.57;3.35;;;9.90;89.60;;;;;;5017691;28;20144;-70
2021/11/07 06:52:25;;;;;;;9.85;3.88;;;9.80;89.80;;;;;;5027154;28;20059;-69
2021/11/07 06:54:52;;;;;;;6.07;3.65;;;9.90;89.50;;;;;;5008391;28;20033;-69
2021/11/07 06:57:18;;;;;;;9.10;4.10;;;10.00;88.90;;;;;;5011096;28;20114;-69
2021/11/07 06:59:44;;;;;;;5.97;3.42;;;10.10;88.70;;;;;;5015505;28;20041;-69
2021/11/07 07:02:10;;;;;;;6.55;4.20;;;10.20;88.20;;;;;;5008571;28;20036;-70
2021/11/07 07:04:36;;;;;;;5.40;3.63;;;10.30;87.50;;;;;;5010680;28;20034;-69
2021/11/07 07:07:02;;;;;;;7.68;3.40;;;10.30;87.30;;;;;;5021942;28;20037;-68
2021/11/07 07:09:31;;;;;;;7.40;3.97;;;10.20;88.20;;;;;;5016051;28;20418;-69
2021/11/07 07:12:14;;;;;;;8.63;4.13;;;10.10;88.30;;;;;;5016342;28;20041;-70
2021/11/07 07:14:48;;;;;;;5.53;3.70;;;10.20;89.00;;;;;;5015383;28;20038;-69
2021/11/07 07:17:30;;;;;;;5.78;3.40;;;10.10;89.50;;;;;;5018337;28;20099;-69
2021/11/07 07:22:46;;;;;;;5.85;3.22;;;10.20;89.90;;;;;;5021263;28;20032;-69
2021/11/07 07:35:37;;;;;;;6.75;3.67;;;9.90;91.40;;;;;;5020510;28;20083;-69
2021/11/07 07:38:03;;;;;;;8.45;4.53;;;10.00;91.50;;;;;;5014640;28;20782;-69
2021/11/07 07:40:29;;;;;;;5.20;3.92;;;10.10;91.40;;;;;;5016429;28;20026;-69
2021/11/07 07:42:55;;;;;;;6.68;4.13;;;10.10;91.30;;;;;;5011892;28;20100;-69
2021/11/07 07:45:22;;;;;;;7.13;4.65;;;10.20;91.00;;;;;;5019193;28;20492;-69
2021/11/07 07:47:48;;;;;;;5.55;3.53;;;10.20;91.00;;;;;;5017666;28;20048;-69
2021/11/07 07:50:16;;;;;;;4.25;3.05;;;10.30;90.80;;;;;;5028209;28;20048;-69
2021/11/07 07:52:42;;;;;;;5.35;3.90;;;10.30;90.70;;;;;;5018191;28;20837;-69
2021/11/07 07:55:10;;;;;;;6.70;3.92;;;10.50;90.40;;;;;;5023561;28;20250;-71
2021/11/07 07:57:37;;;;;;;4.85;3.55;;;10.50;90.10;;;;;;5017576;28;20495;-69
2021/11/07 08:00:08;;;;;;;5.57;3.70;;;10.50;90.40;;;;;;5024288;28;20028;-71
2021/11/07 08:02:38;;;;;;;6.35;4.78;;;10.50;90.30;;;;;;5019848;28;20144;-69
2021/11/07 08:05:05;;;;;;;5.13;3.28;;;10.70;90.10;;;;;;5020807;28;20045;-69
2021/11/07 08:07:30;;;;;;;6.70;4.68;;;10.80;89.10;;;;;;5026253;28;20042;-68
2021/11/07 08:09:56;;;;;;;6.05;4.03;;;10.90;88.40;;;;;;5013769;28;20044;-68
2021/11/07 08:12:24;;;;;;;12.30;6.65;;;10.80;88.90;;;;;;5020305;28;20033;-69
2021/11/07 08:14:50;;;;;;;5.40;3.22;;;10.80;89.10;;;;;;5021342;28;20689;-69
2021/11/07 08:17:16;;;;;;;5.40;3.15;;;10.80;88.80;;;;;;5027847;28;20030;-71
2021/11/07 08:19:42;;;;;;;5.47;2.92;;;11.10;88.80;;;;;;5021355;28;20536;-69
2021/11/07 08:22:08;;;;;;;5.97;2.70;;;11.30;86.90;;;;;;5017498;28;20037;-70
2021/11/07 08:24:36;;;;;;;5.68;2.72;;;11.40;86.00;;;;;;5016054;28;20667;-70
2021/11/07 08:27:03;;;;;;;4.97;3.13;;;11.50;85.30;;;;;;5023776;28;20029;-70
2021/11/07 08:29:29;;;;;;;4.80;2.63;;;11.30;85.90;;;;;;5024628;28;20079;-71
2021/11/07 08:31:56;;;;;;;4.45;2.60;;;11.20;86.30;;;;;;5018701;28;20037;-71
2021/11/07 08:34:27;;;;;;;5.60;3.05;;;11.30;86.70;;;;;;5022466;28;20114;-68
2021/11/07 08:37:00;;;;;;;5.38;2.92;;;11.60;85.10;;;;;;5020043;28;20247;-70
2021/11/07 08:39:31;;;;;;;4.00;2.35;;;11.80;84.30;;;;;;5022060;28;20493;-69
2021/11/07 08:42:04;;;;;;;3.22;2.25;;;11.80;83.70;;;;;;5021454;28;20033;-71
2021/11/07 09:01:26;;;;;;;5.85;2.60;;;11.90;83.90;;;;;;5025422;28;20121;-70
2021/11/07 09:08:49;;;;;;;5.03;2.15;;;11.80;85.30;;;;;;5021376;28;20060;-70
2021/11/07 09:11:20;;;;;;;4.72;1.92;;;11.90;85.50;;;;;;5010333;28;20042;-73
2021/11/07 09:13:47;;;;;;;3.60;2.03;;;12.10;84.70;;;;;;5021071;28;20042;-72
2021/11/07 09:16:14;;;;;;;3.80;1.65;;;12.20;83.90;;;;;;5027850;28;20040;-73
2021/11/07 09:18:41;;;;;;;5.05;1.88;;;12.40;83.50;;;;;;5012227;28;20050;-72
2021/11/07 09:21:16;;;;;;;9.50;3.42;;;12.40;83.20;;;;;;5006708;28;20037;-70
2021/11/07 09:23:46;;;;;;;6.80;3.63;;;12.30;83.30;;;;;;5011918;28;20043;-72
2021/11/07 09:26:22;;;;;;;7.50;3.03;;;12.00;84.00;;;;;;5019142;28;20690;-71
2021/11/07 09:28:57;;;;;;;7.35;2.60;;;11.90;85.00;;;;;;5020652;28;20045;-72
2021/11/07 09:36:24;;;;;;;7.28;6.63;;;12.40;82.00;;;;;;5018951;28;20044;-73
2021/11/07 09:41:38;;;;;;;6.65;5.97;;;12.10;83.30;;;;;;5010753;28;20136;-72
2021/11/07 09:49:00;;;;;;;4.85;1.92;;;12.70;81.30;;;;;;5019799;28;20075;-72
2021/11/07 09:51:35;;;;;;;4.25;2.00;;;12.80;80.70;;;;;;5028664;28;20036;-73
2021/11/07 09:54:03;;;;;;;4.28;1.80;;;12.50;80.00;;;;;;5012422;28;20042;-71
2021/11/07 09:56:29;;;;;;;4.95;1.98;;;12.20;82.10;;;;;;5008825;28;20616;-71
2021/11/07 09:58:58;;;;;;;3.72;1.98;;;11.90;82.70;;;;;;5009909;28;20041;-78
2021/11/07 10:01:24;;;;;;;8.32;2.70;;;11.80;84.40;;;;;;5016582;28;20183;-71
2021/11/07 10:03:51;;;;;;;6.28;2.67;;;11.80;84.70;;;;;;5026019;28;20047;-71
2021/11/07 10:06:43;;;;;;;5.60;2.33;;;11.70;85.00;;;;;;5015544;28;20493;-73
2021/11/07 10:09:10;;;;;;;6.25;1.83;;;11.60;85.10;;;;;;5015286;28;20048;-74
2021/11/07 10:11:42;;;;;;;4.88;1.50;;;11.90;84.40;;;;;;5013414;28;20128;-73
2021/11/07 10:14:17;;;;;;;7.97;2.50;;;11.90;83.80;;;;;;5022209;28;20057;-74
2021/11/07 10:16:49;;;;;;;6.50;2.17;;;12.20;83.70;;;;;;5013412;28;20036;-78
2021/11/07 10:19:25;;;;;;;5.00;2.08;;;12.20;82.10;;;;;;5015263;28;20048;-72
2021/11/07 10:21:52;;;;;;;7.28;2.22;;;12.10;82.70;;;;;;5004437;28;20034;-71
2021/11/07 10:24:24;;;;;;;9.70;2.22;;;11.90;83.60;;;;;;5006661;28;20041;-74
2021/11/07 10:27:05;;;;;;;5.65;2.38;;;11.70;84.30;;;;;;5015970;28;20057;-74
2021/11/07 10:29:38;;;;;;;5.30;1.77;;;11.80;84.10;;;;;;5016921;28;20376;-73
2021/11/07 10:32:18;;;;;;;4.68;1.55;;;11.70;84.60;;;;;;5024954;28;20390;-76
2021/11/07 10:37:59;;;;;;;5.18;1.88;;;12.00;83.60;;;;;;4976232;28;20112;-74
2021/11/07 10:41:30;;;;;;;4.72;2.10;;;11.90;83.50;;;;;;5021501;28;20469;-71
2021/11/07 10:54:11;;;;;;;6.28;1.95;;;11.80;85.00;;;;;;5020966;28;20120;-72
2021/11/07 10:56:37;;;;;;;4.18;2.00;;;11.70;86.00;;;;;;5011465;28;20069;-74
2021/11/07 10:59:13;;;;;;;6.28;2.33;;;11.70;86.10;;;;;;5014177;28;20124;-72
2021/11/07 11:01:40;;;;;;;3.20;2.03;;;11.40;86.40;;;;;;5014465;28;20032;-73
2021/11/07 11:04:05;;;;;;;5.03;2.15;;;11.40;87.80;;;;;;5024921;28;20106;-75
2021/11/07 11:06:31;;;;;;;6.05;2.20;;;11.40;87.20;;;;;;5023429;28;20033;-75
2021/11/07 11:09:03;;;;;;;6.18;1.70;;;11.40;87.60;;;;;;5025798;28;20575;-75
2021/11/07 11:11:34;;;;;;;7.60;2.90;;;11.40;88.40;;;;;;5008888;28;20045;-74
2021/11/07 11:14:11;;;;;;;5.50;2.40;;;11.50;87.90;;;;;;5012550;28;20138;-74
2021/11/07 11:17:05;;;;;;;8.02;2.30;;;11.50;88.70;;;;;;5013253;28;20040;-71
2021/11/07 11:38:59;;;;;;;4.65;1.88;;;11.90;86.00;;;;;;5010304;28;20037;-71
2021/11/07 11:43:52;;;;;;;6.45;1.77;;;12.40;83.00;;;;;;5009340;28;20033;-74
2021/11/07 11:46:48;;;;;;;5.00;1.45;;;12.40;83.00;;;;;;5011289;28;20098;-74
2021/11/07 11:55:00;;;;;;;3.90;1.60;;;12.20;83.30;;;;;;5016729;28;20052;-74
2021/11/07 12:00:30;;;;;;;3.55;1.48;;;11.70;84.20;;;;;;5016175;28;20102;-71
2021/11/07 12:08:08;;;;;;;4.35;1.20;;;11.90;83.40;;;;;;5022757;28;20029;-69
2021/11/07 12:10:45;;;;;;;5.43;1.30;;;12.00;83.50;;;;;;5013482;28;20045;-70
2021/11/07 12:13:26;;;;;;;6.45;1.60;;;11.90;82.60;;;;;;5013527;28;20929;-71
2021/11/07 12:15:54;;;;;;;7.60;1.25;;;11.80;82.10;;;;;;5017189;28;20036;-65
2021/11/07 12:18:20;;;;;;;3.75;1.38;;;11.70;82.40;;;;;;5023514;28;20021;-68
2021/11/07 12:20:55;;;;;;;4.38;1.50;;;11.50;83.50;;;;;;5020935;28;20029;-66
2021/11/07 12:23:33;;;;;;;4.80;1.37;;;11.50;84.50;;;;;;5014370;28;20037;-65
2021/11/07 12:26:25;;;;;;;3.63;1.35;;;11.50;84.80;;;;;;5017050;28;20669;-70
2021/11/07 12:28:54;;;;;;;3.22;1.05;;;11.50;83.70;;;;;;5025075;28;20028;-70
2021/11/07 12:31:20;;;;;;;3.85;1.25;;;11.40;82.00;;;;;;5012816;28;20061;-71
2021/11/07 12:33:59;;;;;;;6.05;1.27;;;11.40;82.90;;;;;;5021143;28;20830;-71
2021/11/07 12:41:41;;;;;;;4.63;1.10;;;11.30;83.40;;;;;;5011204;28;20117;-70
2021/11/07 12:44:26;;;;;;;5.25;1.05;;;11.40;83.00;;;;;;5012583;28;20045;-68
2021/11/07 12:47:06;;;;;;;3.88;1.10;;;11.50;81.70;;;;;;5021331;28;20033;-76
2021/11/07 12:49:33;;;;;;;8.95;1.52;;;11.40;81.60;;;;;;5022989;28;20041;-71
2021/11/07 12:52:12;;;;;;;5.72;0.98;;;11.40;81.70;;;;;;5017426;28;20030;-70
2021/11/07 12:54:40;;;;;;;9.27;1.58;;;11.50;81.60;;;;;;5018360;28;20090;-69
2021/11/07 12:57:18;;;;;;;7.97;1.70;;;11.70;81.00;;;;;;5010258;28;20818;-69
2021/11/07 12:59:45;;;;;;;3.05;0.90;;;11.80;80.20;;;;;;5020278;28;20037;-70
2021/11/07 13:02:21;;;;;;;4.20;1.00;;;11.80;80.30;;;;;;5014023;28;20100;-71
2021/11/07 13:05:07;;;;;;;5.97;0.88;;;11.80;79.70;;;;;;5012875;28;20364;-69
2021/11/07 13:07:49;;;;;;;4.50;0.98;;;11.80;80.10;;;;;;5014997;28;20024;-69
2021/11/07 13:10:47;;;;;;;7.50;1.15;;;11.80;79.40;;;;;;5016811;28;20549;-69
2021/11/07 13:13:50;;;;;;;8.45;1.80;;;11.80;78.90;;;;;;5011137;28;20152;-69
2021/11/07 13:24:33;;;;;;;4.03;1.27;;;11.30;80.30;;;;;;5021187;28;20121;-70
2021/11/07 13:29:36;;;;;;;5.53;1.38;;;11.20;80.90;;;;;;5032133;28;20112;-70
2021/11/07 13:34:35;;;;;;;6.75;1.95;;;11.10;81.00;;;;;;5005094;28;20026;-70
2021/11/07 13:37:04;;;;;;;4.28;1.52;;;11.00;82.00;;;;;;5016267;28;20041;-70
2021/11/07 13:39:37;;;;;;;6.57;1.50;;;11.00;83.10;;;;;;5003591;28;20022;-70
2021/11/07 13:42:15;;;;;;;5.35;1.75;;;11.40;82.70;;;;;;5009403;28;20065;-70
2021/11/07 13:44:54;;;;;;;9.95;1.98;;;11.80;80.20;;;;;;5009516;28;20879;-70
2021/11/07 13:47:32;;;;;;;7.80;1.35;;;12.10;79.10;;;;;;5012951;28;20061;-69
2021/11/07 13:50:01;;;;;;;4.88;1.67;;;12.30;77.20;;;;;;5010885;28;20034;-70
2021/11/07 13:52:34;;;;;;;6.07;1.60;;;12.50;76.80;;;;;;5014048;28;20034;-69
2021/11/07 13:55:00;;;;;;;10.68;1.80;;;12.50;76.70;;;;;;5019806;28;20765;-69
2021/11/07 13:57:31;;;;;;;19.02;4.47;;;12.30;76.90;;;;;;5018235;28;20163;-69
2021/11/07 13:59:58;;;;;;;13.73;3.78;;;12.00;78.10;;;;;;5022625;28;20140;-69
2021/11/07 14:02:25;;;;;;;5.00;2.42;;;11.70;79.30;;;;;;5012727;28;20459;-69
2021/11/07 14:04:57;;;;;;;7.72;2.25;;;11.50;80.50;;;;;;5005846;28;20033;-69
2021/11/07 14:07:28;;;;;;;6.93;1.75;;;11.50;81.70;;;;;;5008025;28;20091;-70
2021/11/07 14:10:06;;;;;;;7.80;2.45;;;11.40;84.40;;;;;;5012131;28;20049;-70
2021/11/07 14:12:45;;;;;;;12.55;5.32;;;11.30;86.10;;;;;;5025748;28;20159;-69
2021/11/07 14:15:31;;;;;;;11.30;4.93;;;11.30;87.50;;;;;;5014999;28;20052;-69
2021/11/07 14:18:29;;;;;;;8.57;1.60;;;11.20;87.90;;;;;;5008738;28;20038;-69
2021/11/07 14:20:59;;;;;;;9.80;1.50;;;11.10;88.90;;;;;;5000843;28;20042;-70
2021/11/07 14:26:11;;;;;;;6.13;1.40;;;10.90;89.90;;;;;;5016012;28;20143;-69
2021/11/07 14:29:09;;;;;;;9.35;1.45;;;10.70;90.00;;;;;;5011262;28;20036;-69
2021/11/07 14:31:40;;;;;;;3.03;1.42;;;10.60;90.10;;;;;;5003889;28;20045;-68
2021/11/07 14:34:10;;;;;;;4.38;0.88;;;10.40;90.20;;;;;;5020955;28;20076;-69
2021/11/07 14:36:45;;;;;;;3.95;1.02;;;10.30;90.20;;;;;;5025663;28;20026;-69
2021/11/07 14:39:38;;;;;;;3.90;1.15;;;10.10;90.40;;;;;;5012124;28;20616;-68
2021/11/07 14:45:14;;;;;;;5.15;1.00;;;9.90;90.70;;;;;;5000832;28;20052;-69
2021/11/07 14:47:58;;;;;;;6.28;0.80;;;9.80;90.70;;;;;;5005633;28;20068;-69
2021/11/07 14:50:51;;;;;;;4.15;0.90;;;9.70;90.60;;;;;;5015931;28;20041;-69
2021/11/07 14:53:25;;;;;;;4.40;0.90;;;9.70;90.50;;;;;;5026832;28;20116;-68
2021/11/07 14:58:41;;;;;;;4.07;1.50;;;9.80;90.60;;;;;;5018599;28;20775;-69
2021/11/07 15:04:00;;;;;;;5.93;1.25;;;9.80;90.10;;;;;;5017973;28;20025;-69
2021/11/07 15:06:35;;;;;;;5.70;1.25;;;9.90;90.30;;;;;;5011673;28;20060;-69
2021/11/07 15:09:09;;;;;;;6.65;1.10;;;9.80;89.50;;;;;;5025137;28;20049;-69
2021/11/07 15:12:12;;;;;;;2.25;0.68;;;9.80;89.80;;;;;;5019643;28;20037;-69
2021/11/07 15:14:38;;;;;;;5.75;1.50;;;9.60;90.20;;;;;;5003539;28;20053;-69
2021/11/07 15:17:15;;;;;;;3.47;1.40;;;9.50;90.50;;;;;;5002586;28;20718;-69
2021/11/07 15:19:58;;;;;;;9.55;2.20;;;9.50;90.70;;;;;;5005312;28;20041;-69
2021/11/07 15:22:47;;;;;;;7.82;2.60;;;9.50;90.70;;;;;;5015137;28;20040;-69
2021/11/07 15:25:14;;;;;;;9.05;1.58;;;9.50;90.80;;;;;;5016967;28;20034;-69
2021/11/07 15:27:39;;;;;;;6.88;1.58;;;9.50;90.60;;;;;;5010415;28;20048;-69
2021/11/07 15:30:14;;;;;;;3.50;1.27;;;9.50;90.70;;;;;;5011346;28;20034;-69